Ana Sayfa
METAR-TAF:

METAR-TAF

Havaalanları :

Golden Triangle Regional Airport

Columbus / West Point / Starkville, Mississipi, Amerika Birleşik Devletleri

Enlem: 33-27N, Boylam: 088-35W, yükseklik: 80 m

Güncel hava durumu gözlemi

Rapor saat 18:56 UTC de 36 dakika önce yapıldı.
Rüzgar değişken yönden 4 kt
Sıcaklık 37°C
Nem 33%
Basınç 1014 hPa
Görüş mesafesi: 16.1 km
Açık gökyüzü

METAR: KGTR 251856Z VRB04KT 10SM CLR 37/18 A2995 RMK AO2 SLP146 T03670178

Saat: 14:32 (19:32 UTC)

Tahmin

Rapor saat 17:34 UTC de 1 saat ve 58 dakika önce yapıldı.
Ayın 25'si saat 18 UTC'den ayın 26'si saat 18 UTC'ye kadar geçerli Tahmin
Rüzgar güney/güneybatıdan 4 kt
Görüş mesafesi: 10 km
5000 ft yükseklikte az bulutlu

TAF: KGTR 251734Z 2518/2618 20004KT P6SM FEW050

4.000'den fazla havaalanı için hava durumu gözlemleri ve tahminleri (METAR ve TAF raporları).

Kullanılabilir istasyonlar harita üzerinde sarı ve kırmızı noktalarla gösterilir.

İstasyonun adını görmek için fareyi noktanın üzerinde gezdirin.

Sonrasında hava gözlem ve tahminlerini görmek için tıklayın.

Haritayı değiştirmek için: yaklaştırmak için siyah artı işaretli yeşil düğmeye ve uzaklaştırmak için de eksi işaretli düğmeye hızla tıklayın; bitişik haritalar için yeşil okları kullanın.


METAR-TAF: